Time;durP1;ratioP1;P1;durP2;ratioP2;P2;SDS_P1;SDS_P2;PMS_P1;PMS_P2;Temp;Humidity;BMP_temperature;BMP_pressure;BME280_temperature;BME280_humidity;BME280_pressure;Samples;Min_cycle;Max_cycle;Signal;HPM_P1;HPM_P2
2022/06/18 00:02:45;;;;;;;;;;;;;;;24.49;43.59;96357.81;10455131;28;2143;-59
2022/06/18 00:07:46;;;;;;;;;;;;;;;24.49;43.63;96349.88;10456774;28;1812;-60
2022/06/18 00:18:06;;;;;;;;;;;;;;;24.48;43.71;96341.16;10460374;28;1856;-57
2022/06/18 00:23:10;;;;;;;;;;;;;;;24.48;43.50;96343.81;10437058;28;1910;-58
2022/06/18 00:28:20;;;;;;;;;;;;;;;24.48;43.58;96346.47;10458225;28;1882;-59
2022/06/18 00:33:22;;;;;;;;;;;;;;;24.48;43.49;96346.47;10465708;28;2052;-58
2022/06/18 00:38:41;;;;;;;;;;;;;;;24.48;43.56;96343.00;10474305;28;1892;-58
2022/06/18 00:43:43;;;;;;;;;;;;;;;24.48;43.59;96348.31;10456953;28;1967;-60
2022/06/18 00:48:45;;;;;;;;;;;;;;;24.48;43.25;96340.38;10459482;28;1869;-61
2022/06/18 00:53:47;;;;;;;;;;;;;;;24.47;43.40;96344.06;10474223;28;1841;-60
2022/06/18 00:58:47;;;;;;;;;;;;;;;24.47;43.53;96344.06;10439451;28;1849;-60
2022/06/18 01:03:49;;;;;;;;;;;;;;;24.48;43.38;96343.00;10457659;28;2046;-57
2022/06/18 01:08:51;;;;;;;;;;;;;;;24.48;43.35;96340.38;10457362;28;2061;-59
2022/06/18 01:13:52;;;;;;;;;;;;;;;24.48;43.32;96341.16;10442856;28;2046;-61
2022/06/18 01:18:53;;;;;;;;;;;;;;;24.47;43.55;96339.56;10459084;28;2009;-58
2022/06/18 01:24:17;;;;;;;;;;;;;;;24.48;43.25;96340.38;10450394;28;2270;-60
2022/06/18 01:29:36;;;;;;;;;;;;;;;24.47;43.22;96344.88;10484438;28;2067;-58
2022/06/18 01:34:47;;;;;;;;;;;;;;;24.47;43.52;96344.88;10465168;28;1990;-60
2022/06/18 01:39:48;;;;;;;;;;;;;;;24.49;43.29;96347.22;10478758;28;1968;-59
2022/06/18 01:44:49;;;;;;;;;;;;;;;24.47;43.35;96339.56;10481946;28;1993;-59
2022/06/18 01:49:53;;;;;;;;;;;;;;;24.48;43.41;96338.50;10465313;28;1888;-59
2022/06/18 01:54:54;;;;;;;;;;;;;;;24.48;43.15;96335.06;10465824;28;1982;-59
2022/06/18 01:59:57;;;;;;;;;;;;;;;24.47;43.29;96328.97;10480404;28;1954;-59
2022/06/18 02:04:57;;;;;;;;;;;;;;;24.46;43.07;96316.78;10444215;28;1905;-59
2022/06/18 02:10:11;;;;;;;;;;;;;;;24.47;43.26;96313.06;10463323;28;1897;-58
2022/06/18 02:15:12;;;;;;;;;;;;;;;24.47;43.15;96312.28;10483197;28;2034;-58
2022/06/18 02:20:20;;;;;;;;;;;;;;;24.47;43.11;96306.97;10465063;28;1925;-58
2022/06/18 02:25:22;;;;;;;;;;;;;;;24.47;43.23;96306.97;10463732;28;2370;-59
2022/06/18 02:30:24;;;;;;;;;;;;;;;24.45;43.09;96307.25;10477452;28;1927;-58
2022/06/18 02:35:25;;;;;;;;;;;;;;;24.45;43.23;96306.47;10459757;28;1900;-58
2022/06/18 02:40:27;;;;;;;;;;;;;;;24.46;42.92;96308.06;10484285;28;1983;-59
2022/06/18 02:45:27;;;;;;;;;;;;;;;24.46;43.01;96306.16;10461751;28;1967;-61
2022/06/18 02:50:31;;;;;;;;;;;;;;;24.46;42.78;96305.41;10460898;28;2080;-59
2022/06/18 02:55:31;;;;;;;;;;;;;;;24.46;42.91;96305.41;10477304;28;2066;-58
2022/06/18 03:00:36;;;;;;;;;;;;;;;24.46;42.98;96300.09;10479326;28;2022;-58
2022/06/18 03:05:36;;;;;;;;;;;;;;;24.46;42.99;96300.09;10462993;28;1969;-60
2022/06/18 03:15:55;;;;;;;;;;;;;;;24.45;42.95;96301.97;10490083;28;1977;-60
2022/06/18 03:20:59;;;;;;;;;;;;;;;24.45;42.94;96298.50;10460037;28;1953;-60
2022/06/18 03:26:00;;;;;;;;;;;;;;;24.45;42.86;96295.88;10462025;28;1972;-59
2022/06/18 03:31:00;;;;;;;;;;;;;;;24.45;42.85;96295.88;10457843;28;1947;-60
2022/06/18 03:36:02;;;;;;;;;;;;;;;24.44;42.75;96291.66;10481324;28;1974;-59
2022/06/18 03:41:02;;;;;;;;;;;;;;;24.45;42.83;96298.50;10440536;28;1992;-57
2022/06/18 03:46:07;;;;;;;;;;;;;;;24.45;42.67;96299.31;10479465;28;2007;-59
2022/06/18 03:51:08;;;;;;;;;;;;;;;24.45;42.59;96304.63;10460945;28;2066;-59
2022/06/18 03:56:10;;;;;;;;;;;;;;;24.46;42.53;96294.81;10456969;28;1944;-58
2022/06/18 04:01:10;;;;;;;;;;;;;;;24.45;42.66;96287.91;10476832;28;2237;-59
2022/06/18 04:06:11;;;;;;;;;;;;;;;24.45;42.82;96282.63;10477518;28;2256;-61
2022/06/18 04:11:11;;;;;;;;;;;;;;;24.45;42.57;96286.06;10457716;28;1935;-60
2022/06/18 04:16:12;;;;;;;;;;;;;;;24.45;42.41;96283.41;10480373;28;1928;-58
2022/06/18 04:21:13;;;;;;;;;;;;;;;24.46;42.36;96281.56;10477940;28;1881;-59
2022/06/18 04:26:13;;;;;;;;;;;;;;;24.46;42.30;96284.97;10474214;28;2300;-58
2022/06/18 04:31:13;;;;;;;;;;;;;;;24.46;42.39;96274.38;10477550;28;1971;-58
2022/06/18 04:36:41;;;;;;;;;;;;;;;24.46;42.40;96270.97;10462080;28;1980;-59
2022/06/18 04:41:41;;;;;;;;;;;;;;;24.47;42.60;96272.50;10471234;28;1897;-59
2022/06/18 04:46:41;;;;;;;;;;;;;;;24.47;42.29;96278.63;10477936;28;1916;-60
2022/06/18 04:51:42;;;;;;;;;;;;;;;24.47;42.70;96277.81;10473487;28;1959;-60
2022/06/18 04:56:42;;;;;;;;;;;;;;;24.48;42.38;96277.56;10485087;28;1924;-58
2022/06/18 05:01:43;;;;;;;;;;;;;;;24.48;42.46;96274.91;10482464;28;1976;-61
2022/06/18 05:06:43;;;;;;;;;;;;;;;24.48;42.35;96274.09;10498543;28;1997;-58
2022/06/18 05:11:43;;;;;;;;;;;;;;;24.48;42.57;96276.75;10484722;28;1923;-59
2022/06/18 05:16:44;;;;;;;;;;;;;;;24.47;42.67;96280.47;10482401;28;1942;-58
2022/06/18 05:21:45;;;;;;;;;;;;;;;24.46;42.72;96276.25;10460596;28;2045;-60
2022/06/18 05:26:47;;;;;;;;;;;;;;;24.47;42.72;96283.13;10482894;28;1953;-59
2022/06/18 05:31:48;;;;;;;;;;;;;;;24.46;42.71;96290.28;10448289;28;1949;-60
2022/06/18 05:36:49;;;;;;;;;;;;;;;24.46;42.44;96279.66;10494840;28;1971;-58
2022/06/18 05:41:49;;;;;;;;;;;;;;;24.46;42.62;96284.22;10475730;28;2030;-59
2022/06/18 05:46:50;;;;;;;;;;;;;;;24.46;42.78;96279.66;10464015;28;1976;-58
2022/06/18 05:51:50;;;;;;;;;;;;;;;24.47;42.46;96291.06;10481450;28;1861;-59
2022/06/18 05:56:51;;;;;;;;;;;;;;;24.47;42.26;96291.88;10477072;28;1886;-57
2022/06/18 06:01:56;;;;;;;;;;;;;;;24.47;42.45;96285.78;10493186;28;1970;-59
2022/06/18 06:06:56;;;;;;;;;;;;;;;24.46;42.60;96279.66;10463673;28;1976;-58
2022/06/18 06:11:56;;;;;;;;;;;;;;;24.47;42.54;96285.78;10481070;28;1848;-59
2022/06/18 06:16:59;;;;;;;;;;;;;;;24.47;42.44;96285.78;10463319;28;1865;-57
2022/06/18 06:22:00;;;;;;;;;;;;;;;24.48;42.50;96282.06;10479994;28;1868;-61
2022/06/18 06:27:01;;;;;;;;;;;;;;;24.48;42.54;96287.34;10479185;28;1906;-61
2022/06/18 06:32:01;;;;;;;;;;;;;;;24.47;42.40;96283.91;10477969;28;1812;-57
2022/06/18 06:37:02;;;;;;;;;;;;;;;24.47;42.36;96277.81;10478435;28;1803;-60
2022/06/18 06:42:02;;;;;;;;;;;;;;;24.47;42.64;96275.97;10472758;28;2369;-60
2022/06/18 06:47:02;;;;;;;;;;;;;;;24.47;42.66;96281.25;10480279;28;1969;-56
2022/06/18 06:52:03;;;;;;;;;;;;;;;24.49;42.60;96280.97;10464553;28;1931;-59
2022/06/18 06:57:22;;;;;;;;;;;;;;;24.48;42.76;96276.75;10479343;28;1856;-59
2022/06/18 07:02:23;;;;;;;;;;;;;;;24.48;43.07;96282.06;10476806;28;1748;-59
2022/06/18 07:07:23;;;;;;;;;;;;;;;24.48;42.88;96271.47;10482562;28;1922;-56
2022/06/18 07:12:23;;;;;;;;;;;;;;;24.49;42.88;96278.31;10459212;28;1872;-56
2022/06/18 07:17:24;;;;;;;;;;;;;;;24.48;42.66;96261.66;10460027;28;1964;-56
2022/06/18 07:22:25;;;;;;;;;;;;;;;24.48;42.60;96256.34;10481084;28;1920;-57
2022/06/18 07:27:26;;;;;;;;;;;;;;;24.48;42.67;96251.06;10453952;28;2024;-56
2022/06/18 07:32:26;;;;;;;;;;;;;;;24.48;42.53;96244.97;10475524;28;1871;-58
2022/06/18 07:37:27;;;;;;;;;;;;;;;24.48;42.51;96243.09;10462557;28;1943;-59
2022/06/18 07:42:28;;;;;;;;;;;;;;;24.48;42.52;96240.44;10469569;28;2031;-60
2022/06/18 07:47:28;;;;;;;;;;;;;;;24.50;42.64;96224.25;10459234;28;2165;-60
2022/06/18 07:52:29;;;;;;;;;;;;;;;24.49;42.28;96214.72;10475616;28;1835;-59
2022/06/18 07:57:29;;;;;;;;;;;;;;;24.50;42.31;96211.00;10458063;28;1809;-55
2022/06/18 08:02:29;;;;;;;;;;;;;;;24.50;42.43;96213.66;10477352;28;1796;-59
2022/06/18 08:07:30;;;;;;;;;;;;;;;24.51;42.54;96207.25;10457395;28;2505;-60
2022/06/18 08:12:30;;;;;;;;;;;;;;;24.50;42.33;96203.84;10478745;28;1896;-60
2022/06/18 08:17:30;;;;;;;;;;;;;;;24.52;42.17;96208.84;10477984;28;1858;-60
2022/06/18 08:22:31;;;;;;;;;;;;;;;24.52;42.35;96200.91;10477996;28;1827;-60
2022/06/18 08:27:32;;;;;;;;;;;;;;;24.52;42.46;96207.00;10477267;28;1993;-57
2022/06/18 08:32:32;;;;;;;;;;;;;;;24.53;42.35;96194.50;10477948;28;1808;-59
2022/06/18 08:37:33;;;;;;;;;;;;;;;24.52;42.20;96188.44;10484483;28;1859;-59
2022/06/18 08:43:05;;;;;;;;;;;;;;;24.54;42.44;96196.09;10480017;28;1791;-59
2022/06/18 08:48:13;;;;;;;;;;;;;;;24.53;42.56;96187.34;10435313;28;1805;-58
2022/06/18 08:53:26;;;;;;;;;;;;;;;24.54;42.48;96188.16;10483089;28;1818;-59
2022/06/18 08:58:30;;;;;;;;;;;;;;;24.55;42.49;96195.00;10485537;28;1910;-57
2022/06/18 09:03:39;;;;;;;;;;;;;;;24.56;42.55;96186.00;10485265;28;1913;-59
2022/06/18 09:09:15;;;;;;;;;;;;;;;24.55;42.62;96182.56;10466679;28;1874;-60
2022/06/18 09:14:17;;;;;;;;;;;;;;;24.55;42.62;96174.59;10447275;28;2029;-59
2022/06/18 09:19:18;;;;;;;;;;;;;;;24.56;42.68;96170.09;10453249;28;1943;-60
2022/06/18 09:24:33;;;;;;;;;;;;;;;24.56;42.60;96170.09;10464002;28;1902;-60
2022/06/18 09:29:40;;;;;;;;;;;;;;;24.55;42.54;96171.94;10477162;28;1945;-58
2022/06/18 09:34:45;;;;;;;;;;;;;;;24.57;42.85;96174.31;10463838;28;1953;-61
2022/06/18 09:39:46;;;;;;;;;;;;;;;24.57;42.66;96175.09;10463728;28;1913;-61
2022/06/18 09:44:58;;;;;;;;;;;;;;;24.58;42.57;96175.91;10474214;28;1902;-55
2022/06/18 09:49:59;;;;;;;;;;;;;;;24.58;42.64;96170.59;10456960;28;1866;-57
2022/06/18 09:55:12;;;;;;;;;;;;;;;24.59;42.75;96156.25;10461832;28;1879;-58
2022/06/18 10:00:13;;;;;;;;;;;;;;;24.60;42.86;96152.53;10480599;28;1805;-59
2022/06/18 10:10:39;;;;;;;;;;;;;;;24.62;42.99;96145.09;10494547;28;1885;-59
2022/06/18 10:15:40;;;;;;;;;;;;;;;24.62;42.84;96145.88;10467386;28;1895;-59
2022/06/18 10:20:40;;;;;;;;;;;;;;;24.64;42.79;96145.59;10474742;28;1828;-59
2022/06/18 10:26:03;;;;;;;;;;;;;;;24.64;43.17;96132.31;10479424;28;1963;-59
2022/06/18 10:31:18;;;;;;;;;;;;;;;24.65;42.90;96133.88;10469831;28;1946;-59
2022/06/18 10:36:30;;;;;;;;;;;;;;;24.65;43.04;96128.59;10460447;28;1746;-57
2022/06/18 10:41:49;;;;;;;;;;;;;;;24.67;43.03;96127.22;10472388;28;1831;-58
2022/06/18 10:47:19;;;;;;;;;;;;;;;24.68;42.88;96117.41;10471782;28;1957;-56
2022/06/18 10:52:23;;;;;;;;;;;;;;;24.68;43.23;96112.13;10450641;28;2078;-59
2022/06/18 10:57:24;;;;;;;;;;;;;;;24.70;43.21;96116.06;10460568;28;1863;-58
2022/06/18 11:02:31;;;;;;;;;;;;;;;24.69;43.20;96114.47;10491644;28;1591;-58
2022/06/18 11:07:33;;;;;;;;;;;;;;;24.72;43.50;96105.16;10479808;28;1963;-60
2022/06/18 11:12:34;;;;;;;;;;;;;;;24.75;43.86;96107.25;10475296;28;1874;-62
2022/06/18 11:17:41;;;;;;;;;;;;;;;24.77;44.02;96111.16;10478176;28;1841;-59
2022/06/18 11:22:41;;;;;;;;;;;;;;;24.78;43.93;96106.66;10477530;28;2134;-58
2022/06/18 11:27:42;;;;;;;;;;;;;;;24.79;43.84;96103.72;10454261;28;1955;-60
2022/06/18 11:32:44;;;;;;;;;;;;;;;24.80;43.86;96084.09;10468193;28;1823;-63
2022/06/18 11:37:53;;;;;;;;;;;;;;;24.81;43.99;96084.88;10497241;28;1893;-64
2022/06/18 11:42:56;;;;;;;;;;;;;;;24.82;44.40;96068.69;10480522;28;2210;-60
2022/06/18 11:48:06;;;;;;;;;;;;;;;24.84;44.27;96078.97;10495167;28;1911;-64
2022/06/18 11:53:21;;;;;;;;;;;;;;;24.84;44.36;96069.16;10483579;28;1839;-63
2022/06/18 11:58:34;;;;;;;;;;;;;;;24.86;44.40;96068.88;10474049;28;1855;-61
2022/06/18 12:03:46;;;;;;;;;;;;;;;24.85;44.36;96065.41;10450407;28;1996;-60
2022/06/18 12:08:47;;;;;;;;;;;;;;;24.86;44.58;96056.41;10470520;28;1805;-63
2022/06/18 12:13:48;;;;;;;;;;;;;;;24.88;44.70;96050.78;10452913;28;1851;-64
2022/06/18 12:18:53;;;;;;;;;;;;;;;24.89;44.48;96044.44;10434290;28;1922;-58
2022/06/18 12:23:53;;;;;;;;;;;;;;;24.90;44.62;96038.03;10474521;28;1960;-59
2022/06/18 12:28:59;;;;;;;;;;;;;;;24.90;44.76;96041.47;10475927;28;1912;-62
2022/06/18 12:33:59;;;;;;;;;;;;;;;24.91;44.92;96026.34;10439365;28;1863;-60
2022/06/18 12:39:15;;;;;;;;;;;;;;;24.91;44.92;96032.47;10455066;28;1846;-61
2022/06/18 12:44:35;;;;;;;;;;;;;;;24.92;44.89;96022.63;10482210;28;1898;-59
2022/06/18 12:49:54;;;;;;;;;;;;;;;24.94;44.97;96012.50;10484852;28;1841;-61
2022/06/18 12:55:01;;;;;;;;;;;;;;;24.94;45.14;96010.63;10485757;28;1820;-60
2022/06/18 13:00:04;;;;;;;;;;;;;;;24.95;45.31;96008.78;10450742;28;1833;-59
2022/06/18 13:05:07;;;;;;;;;;;;;;;24.97;45.21;96003.97;10470064;28;1967;-62
2022/06/18 13:10:11;;;;;;;;;;;;;;;24.99;45.19;95991.19;10471806;28;1858;-60
2022/06/18 13:15:18;;;;;;;;;;;;;;;24.98;45.38;95987.75;10462726;28;1833;-63
2022/06/18 13:20:25;;;;;;;;;;;;;;;25.00;45.28;95976.84;10497562;28;1803;-62
2022/06/18 13:30:48;;;;;;;;;;;;;;;25.00;45.21;95976.84;10448004;28;1844;-60
2022/06/18 13:36:00;;;;;;;;;;;;;;;25.01;45.32;95957.19;10456968;28;1808;-60
2022/06/18 13:41:04;;;;;;;;;;;;;;;25.01;45.15;95949.25;10473114;28;2062;-63
2022/06/18 13:46:23;;;;;;;;;;;;;;;25.02;45.24;95941.00;10478398;28;1902;-61
2022/06/18 13:51:34;;;;;;;;;;;;;;;25.01;45.41;95936.78;10480899;28;1601;-60
2022/06/18 13:56:34;;;;;;;;;;;;;;;25.03;45.28;95931.97;10477203;28;1867;-63
2022/06/18 14:01:48;;;;;;;;;;;;;;;25.03;45.56;95921.34;10438839;28;1812;-59
2022/06/18 14:06:50;;;;;;;;;;;;;;;25.02;45.72;95911.81;10459291;28;1906;-57
2022/06/18 14:11:55;;;;;;;;;;;;;;;25.04;45.41;95912.28;10472864;28;1762;-60
2022/06/18 14:17:03;;;;;;;;;;;;;;;25.06;45.41;95900.63;10471965;28;1888;-57
2022/06/18 14:22:08;;;;;;;;;;;;;;;25.06;45.60;95893.44;10473115;28;1810;-59
2022/06/18 14:27:18;;;;;;;;;;;;;;;25.07;45.47;95888.91;10461694;28;1910;-58
2022/06/18 14:32:34;;;;;;;;;;;;;;;25.07;45.34;95881.75;10454409;28;1826;-58
2022/06/18 14:37:39;;;;;;;;;;;;;;;25.06;45.56;95872.22;10490546;28;1891;-58
2022/06/18 14:42:50;;;;;;;;;;;;;;;25.07;45.41;95867.69;10440666;28;1820;-58
2022/06/18 14:47:53;;;;;;;;;;;;;;;25.07;45.52;95865.84;10457570;28;2161;-59
2022/06/18 14:53:03;;;;;;;;;;;;;;;25.07;45.59;95860.53;10477797;28;1949;-58
2022/06/18 14:58:03;;;;;;;;;;;;;;;25.07;45.76;95852.56;10468256;28;1820;-61
2022/06/18 15:03:15;;;;;;;;;;;;;;;25.01;45.84;95846.59;10472848;28;1968;-58
2022/06/18 15:08:16;;;;;;;;;;;;;;;25.06;45.86;95842.28;10459938;28;2099;-59
2022/06/18 15:13:17;;;;;;;;;;;;;;;25.11;46.15;95840.28;10470278;28;1842;-60
2022/06/18 15:18:40;;;;;;;;;;;;;;;25.10;45.98;95828.09;10460357;28;2095;-60
2022/06/18 15:29:03;;;;;;;;;;;;;;;25.11;46.01;95815.63;10469668;28;1802;-59
2022/06/18 15:34:15;;;;;;;;;;;;;;;25.12;45.91;95809.25;10488213;28;1704;-62
2022/06/18 15:39:16;;;;;;;;;;;;;;;25.12;45.79;95795.97;10455102;28;1951;-57
2022/06/18 15:44:23;;;;;;;;;;;;;;;25.12;45.75;95803.94;10452438;28;1963;-62
2022/06/18 15:49:33;;;;;;;;;;;;;;;25.12;45.96;95793.31;10476655;28;1737;-61
2022/06/18 15:54:35;;;;;;;;;;;;;;;25.12;45.75;95783.50;10457901;28;1859;-61
2022/06/18 15:59:35;;;;;;;;;;;;;;;25.11;46.00;95779.28;10473463;28;1741;-60
2022/06/18 16:04:36;;;;;;;;;;;;;;;25.12;45.89;95780.84;10490892;28;1897;-57
2022/06/18 16:09:49;;;;;;;;;;;;;;;25.12;45.89;95774.75;10453373;28;3512;-59
2022/06/18 16:14:49;;;;;;;;;;;;;;;25.12;45.93;95780.84;10471460;28;1827;-60
2022/06/18 16:19:51;;;;;;;;;;;;;;;25.14;45.78;95780.53;10474009;28;1801;-61
2022/06/18 16:24:51;;;;;;;;;;;;;;;25.13;45.83;95777.09;10473804;28;2072;-61
2022/06/18 16:29:54;;;;;;;;;;;;;;;25.13;45.66;95771.78;10471891;28;1710;-57
2022/06/18 16:35:14;;;;;;;;;;;;;;;25.13;45.71;95771.78;10451532;28;1873;-61
2022/06/18 16:40:17;;;;;;;;;;;;;;;25.12;45.64;95766.78;10471239;28;1982;-62
2022/06/18 16:45:17;;;;;;;;;;;;;;;25.12;45.61;95767.59;10474599;28;1905;-63
2022/06/18 16:50:19;;;;;;;;;;;;;;;25.14;45.76;95765.41;10460913;28;1847;-59
2022/06/18 16:55:22;;;;;;;;;;;;;;;25.14;45.64;95764.63;10450281;28;1893;-60
2022/06/18 17:00:29;;;;;;;;;;;;;;;25.15;45.72;95755.56;10481981;28;1880;-57
2022/06/18 17:05:29;;;;;;;;;;;;;;;25.13;45.65;95753.22;10492774;28;1910;-60
2022/06/18 17:10:30;;;;;;;;;;;;;;;25.14;45.72;95760.13;10480116;28;1828;-60
2022/06/18 17:15:30;;;;;;;;;;;;;;;25.14;45.70;95754.81;10477217;28;1832;-57
2022/06/18 17:20:30;;;;;;;;;;;;;;;25.15;45.79;95745.75;10483036;28;1768;-59
2022/06/18 17:31:11;;;;;;;;;;;;;;;25.15;45.78;95739.66;10493958;28;1881;-60
2022/06/18 17:36:20;;;;;;;;;;;;;;;25.16;45.82;95736.72;10482606;28;2162;-57
2022/06/18 17:41:21;;;;;;;;;;;;;;;25.16;45.85;95731.41;10458736;28;1972;-61
2022/06/18 17:46:21;;;;;;;;;;;;;;;25.16;45.87;95730.63;10480954;28;1985;-60
2022/06/18 17:51:22;;;;;;;;;;;;;;;25.16;45.75;95730.63;10481258;28;1840;-61
2022/06/18 17:56:25;;;;;;;;;;;;;;;25.16;45.62;95725.31;10462200;28;1877;-57
2022/06/18 18:01:31;;;;;;;;;;;;;;;25.17;45.80;95726.88;10472252;28;1748;-58
2022/06/18 18:06:31;;;;;;;;;;;;;;;25.16;45.70;95726.09;10452187;28;1973;-61
2022/06/18 18:11:54;;;;;;;;;;;;;;;25.16;45.61;95718.16;10492809;28;1840;-59
2022/06/18 18:16:54;;;;;;;;;;;;;;;25.16;45.54;95718.16;10477473;28;2018;-62
2022/06/18 18:21:55;;;;;;;;;;;;;;;25.16;45.74;95715.50;10457512;28;1812;-63
2022/06/18 18:26:57;;;;;;;;;;;;;;;25.16;45.71;95718.16;10472886;28;1979;-62
2022/06/18 18:31:58;;;;;;;;;;;;;;;25.17;45.57;95717.06;10455657;28;1931;-61
2022/06/18 18:36:59;;;;;;;;;;;;;;;25.17;45.66;95714.41;10476606;28;1935;-61
2022/06/18 18:42:00;;;;;;;;;;;;;;;25.17;45.76;95708.31;10454012;28;1948;-56
2022/06/18 18:47:01;;;;;;;;;;;;;;;25.18;45.54;95712.53;10495023;28;1992;-60
2022/06/18 18:52:02;;;;;;;;;;;;;;;25.17;45.54;95714.41;10475197;28;1808;-58
2022/06/18 18:57:03;;;;;;;;;;;;;;;25.16;45.74;95712.84;10458020;28;1803;-62
2022/06/18 19:02:05;;;;;;;;;;;;;;;25.17;45.64;95706.44;10474338;28;1774;-61
2022/06/18 19:07:06;;;;;;;;;;;;;;;25.18;45.55;95715.97;10461112;28;1906;-61
2022/06/18 19:17:27;;;;;;;;;;;;;;;25.17;45.47;95711.75;10460213;28;1870;-61
2022/06/18 19:22:27;;;;;;;;;;;;;;;25.19;45.61;95714.09;10459430;28;1830;-61
2022/06/18 19:27:27;;;;;;;;;;;;;;;25.18;45.53;95717.84;10459731;28;1985;-62
2022/06/18 19:32:28;;;;;;;;;;;;;;;25.18;45.47;95713.31;10439037;28;1781;-61
2022/06/18 19:37:28;;;;;;;;;;;;;;;25.18;45.49;95721.28;10459845;28;1896;-57
2022/06/18 19:42:29;;;;;;;;;;;;;;;25.17;45.47;95722.34;10452281;28;1908;-61
2022/06/18 19:47:30;;;;;;;;;;;;;;;25.18;45.56;95721.28;10480554;28;1911;-59
2022/06/18 19:52:31;;;;;;;;;;;;;;;25.19;45.49;95719.38;10458936;28;1809;-61
2022/06/18 19:57:31;;;;;;;;;;;;;;;25.19;45.59;95722.84;10476624;28;1830;-59
2022/06/18 20:02:31;;;;;;;;;;;;;;;25.18;45.40;95723.94;10473880;28;1841;-58
2022/06/18 20:07:33;;;;;;;;;;;;;;;25.19;45.35;95714.88;10460178;28;1910;-63
2022/06/18 20:12:33;;;;;;;;;;;;;;;25.20;45.55;95728.94;10473246;28;1725;-60
2022/06/18 20:17:34;;;;;;;;;;;;;;;25.20;45.51;95723.63;10474086;28;1856;-60
2022/06/18 20:22:35;;;;;;;;;;;;;;;25.20;45.28;95718.31;10455172;28;1784;-60
2022/06/18 20:27:36;;;;;;;;;;;;;;;25.21;45.54;95718.00;10470918;28;1914;-59
2022/06/18 20:32:38;;;;;;;;;;;;;;;25.20;45.34;95716.47;10484749;28;1808;-62
2022/06/18 20:37:39;;;;;;;;;;;;;;;25.21;45.37;95707.41;10471542;28;1853;-60
2022/06/18 20:42:39;;;;;;;;;;;;;;;25.22;45.49;95702.88;10473274;28;1785;-60
2022/06/18 20:47:40;;;;;;;;;;;;;;;25.22;45.59;95703.66;10477419;28;1965;-60
2022/06/18 20:52:41;;;;;;;;;;;;;;;25.22;45.49;95695.72;10469925;28;1852;-59
2022/06/18 20:57:42;;;;;;;;;;;;;;;25.22;45.28;95698.38;10475915;28;1920;-60
2022/06/18 21:02:43;;;;;;;;;;;;;;;25.22;45.52;95695.72;10468414;28;1836;-60
2022/06/18 21:07:45;;;;;;;;;;;;;;;25.22;45.25;95689.63;10459509;28;1975;-60
2022/06/18 21:12:45;;;;;;;;;;;;;;;25.23;45.44;95691.97;10470419;28;1827;-60
2022/06/18 21:17:46;;;;;;;;;;;;;;;25.22;45.47;95681.66;10460300;28;1842;-59
2022/06/18 21:22:47;;;;;;;;;;;;;;;25.22;45.40;95685.09;10453574;28;1831;-60
2022/06/18 21:27:47;;;;;;;;;;;;;;;25.23;45.26;95678.69;10454169;28;1969;-58
2022/06/18 21:38:09;;;;;;;;;;;;;;;25.06;42.71;95665.31;10460222;28;1834;-59
2022/06/18 21:43:09;;;;;;;;;;;;;;;24.87;41.17;95660.22;10487021;28;1874;-62
2022/06/18 21:48:10;;;;;;;;;;;;;;;24.79;41.40;95660.97;10459477;28;1832;-59
2022/06/18 21:53:11;;;;;;;;;;;;;;;24.92;42.66;95654.03;10479561;28;1857;-58
2022/06/18 21:58:13;;;;;;;;;;;;;;;24.99;42.92;95657.03;10472835;28;1838;-56
2022/06/18 22:03:13;;;;;;;;;;;;;;;25.02;43.16;95646.59;10477233;28;1910;-57
2022/06/18 22:08:14;;;;;;;;;;;;;;;25.06;43.28;95651.31;10447007;28;2023;-59
2022/06/18 22:18:34;;;;;;;;;;;;;;;25.09;43.27;95643.50;10487648;28;1898;-59
2022/06/18 22:23:35;;;;;;;;;;;;;;;25.09;43.47;95643.50;10454301;28;1975;-59
2022/06/18 22:28:35;;;;;;;;;;;;;;;25.11;43.22;95627.28;10463988;28;1856;-57
2022/06/18 22:33:36;;;;;;;;;;;;;;;25.11;43.40;95620.13;10474059;28;1742;-58
2022/06/18 22:38:36;;;;;;;;;;;;;;;25.12;43.45;95615.59;10457703;28;1818;-60
2022/06/18 22:43:37;;;;;;;;;;;;;;;25.13;43.24;95620.59;10459850;28;1926;-60
2022/06/18 22:48:37;;;;;;;;;;;;;;;25.13;43.33;95607.34;10457425;28;1899;-59
2022/06/18 22:53:38;;;;;;;;;;;;;;;25.13;43.33;95602.03;10481725;28;1785;-56
2022/06/18 22:58:39;;;;;;;;;;;;;;;25.13;43.52;95593.28;10458745;28;1840;-56
2022/06/18 23:03:39;;;;;;;;;;;;;;;25.12;43.26;95576.59;10441632;28;1976;-58
2022/06/18 23:08:40;;;;;;;;;;;;;;;25.13;43.22;95570.19;10494307;28;1886;-58
2022/06/18 23:13:40;;;;;;;;;;;;;;;25.14;43.22;95561.16;10474447;28;1832;-57
2022/06/18 23:18:41;;;;;;;;;;;;;;;25.15;43.32;95559.28;10471886;28;1870;-60
2022/06/18 23:23:41;;;;;;;;;;;;;;;25.15;43.46;95549.47;10469611;28;1902;-55
2022/06/18 23:28:43;;;;;;;;;;;;;;;25.15;43.52;95544.16;10471935;28;1900;-58
2022/06/18 23:33:43;;;;;;;;;;;;;;;25.14;43.58;95532.00;10472763;28;1878;-58
2022/06/18 23:38:44;;;;;;;;;;;;;;;25.15;43.64;95533.53;10473261;28;1836;-59
2022/06/18 23:43:45;;;;;;;;;;;;;;;25.16;43.70;95532.47;10475281;28;1984;-58
2022/06/18 23:48:45;;;;;;;;;;;;;;;25.17;43.49;95519.97;10472765;28;1793;-59
2022/06/18 23:53:46;;;;;;;;;;;;;;;25.18;43.70;95514.38;10487656;28;2016;-56
2022/06/18 23:58:47;;;;;;;;;;;;;;;25.18;43.43;95517.03;10489494;28;1837;-56
